createdAt,value
2023-02-05T00:00:51.942Z,69.04
2023-02-05T00:03:56.194Z,69.00
2023-02-05T00:06:41.644Z,68.85
2023-02-05T00:09:46.298Z,68.78
2023-02-05T00:12:41.697Z,68.65
2023-02-05T00:15:54.825Z,68.72
2023-02-05T00:19:00.011Z,68.53
2023-02-05T00:21:58.704Z,68.38
2023-02-05T00:24:55.165Z,68.32
2023-02-05T00:28:07.480Z,68.14
2023-02-05T00:30:54.049Z,67.97
2023-02-05T00:33:55.665Z,67.91
2023-02-05T00:36:44.188Z,67.86
2023-02-05T00:41:07.312Z,67.65
2023-02-05T00:42:46.791Z,67.66
2023-02-05T00:45:20.957Z,67.65
2023-02-05T00:48:10.352Z,67.32
2023-02-05T00:50:48.979Z,67.16
2023-02-05T00:53:39.893Z,66.89
2023-02-05T00:56:13.699Z,66.89
2023-02-05T00:58:52.341Z,66.71
2023-02-05T01:01:31.800Z,66.56
2023-02-05T01:04:13.392Z,66.67
2023-02-05T01:06:49.920Z,66.71
2023-02-05T01:09:26.317Z,66.27
2023-02-05T01:12:01.559Z,66.33
2023-02-05T01:14:40.240Z,66.31
2023-02-05T01:17:14.532Z,66.20
2023-02-05T01:19:59.467Z,66.23
2023-02-05T01:22:39.064Z,66.28
2023-02-05T01:25:10.946Z,66.11
2023-02-05T01:27:43.222Z,66.19
2023-02-05T01:30:20.977Z,66.19
2023-02-05T01:32:58.509Z,66.23
2023-02-05T01:35:34.471Z,66.21
2023-02-05T01:38:18.392Z,66.09
2023-02-05T01:41:16.583Z,66.26
2023-02-05T01:44:29.190Z,66.28
2023-02-05T01:47:04.489Z,66.51
2023-02-05T01:49:53.376Z,66.45
2023-02-05T01:53:00.363Z,66.58
2023-02-05T01:55:55.589Z,66.66
2023-02-05T01:58:35.886Z,66.70
2023-02-05T02:01:23.302Z,66.73
2023-02-05T02:04:04.913Z,66.71
2023-02-05T02:06:54.972Z,66.79
2023-02-05T02:09:40.978Z,67.00
2023-02-05T02:12:16.192Z,66.92
2023-02-05T02:14:54.870Z,66.92
2023-02-05T02:17:36.171Z,66.94
2023-02-05T02:20:21.179Z,66.96
2023-02-05T02:23:50.278Z,66.95
2023-02-05T02:27:11.045Z,66.98
2023-02-05T02:30:11.440Z,67.09
2023-02-05T02:32:52.931Z,67.22
2023-02-05T02:36:07.652Z,67.37
2023-02-05T02:38:57.631Z,67.40
2023-02-05T02:42:10.946Z,67.46
2023-02-05T02:45:08.566Z,67.60
2023-02-05T02:48:10.759Z,67.76
2023-02-05T02:50:58.157Z,67.77
2023-02-05T02:54:01.872Z,67.82
2023-02-05T02:56:44.318Z,67.90
2023-02-05T02:59:50.541Z,68.02
2023-02-05T03:02:46.781Z,68.08
2023-02-05T03:05:26.843Z,68.23
2023-02-05T03:08:24.177Z,68.21
2023-02-05T03:11:40.964Z,68.30
2023-02-05T03:14:18.175Z,68.39
2023-02-05T03:16:57.485Z,68.42
2023-02-05T03:19:43.532Z,68.46
2023-02-05T03:22:16.304Z,68.52
2023-02-05T03:24:49.302Z,68.59
2023-02-05T03:27:32.152Z,68.69
2023-02-05T03:30:13.721Z,68.72
2023-02-05T03:33:12.970Z,68.70
2023-02-05T03:36:22.129Z,68.66
2023-02-05T03:39:35.880Z,68.80
2023-02-05T03:42:34.215Z,68.83
2023-02-05T03:48:51.979Z,68.90
2023-02-05T03:51:50.856Z,68.93
2023-02-05T03:54:32.887Z,69.02
2023-02-05T03:57:41.930Z,69.25
2023-02-05T04:00:28.295Z,69.37
2023-02-05T04:03:23.898Z,69.51
2023-02-05T04:06:15.068Z,69.52
2023-02-05T04:08:59.204Z,69.46
2023-02-05T04:11:51.084Z,69.47
2023-02-05T04:14:33.027Z,69.56
2023-02-05T04:17:23.440Z,69.48
2023-02-05T04:19:54.317Z,69.55
2023-02-05T04:22:38.608Z,69.61
2023-02-05T04:25:42.584Z,69.60
2023-02-05T04:28:54.308Z,69.71
2023-02-05T04:31:27.996Z,69.80
2023-02-05T04:33:59.522Z,69.91
2023-02-05T04:36:47.220Z,69.82
2023-02-05T04:39:26.542Z,69.86
2023-02-05T04:42:08.732Z,69.76
2023-02-05T04:44:59.947Z,69.74
2023-02-05T04:47:57.920Z,69.81
2023-02-05T04:50:31.908Z,69.88
2023-02-05T04:53:17.146Z,69.95
2023-02-05T04:56:07.872Z,69.93
2023-02-05T04:58:41.603Z,70.15
2023-02-05T05:01:35.692Z,70.25
2023-02-05T05:04:12.527Z,70.39
2023-02-05T05:07:13.501Z,70.59
2023-02-05T05:10:17.258Z,70.66
2023-02-05T05:13:04.251Z,70.82
2023-02-05T05:15:37.009Z,70.89
2023-02-05T05:18:23.736Z,70.94
2023-02-05T05:21:17.675Z,70.97
2023-02-05T05:24:05.123Z,70.97
2023-02-05T05:26:46.386Z,70.84
2023-02-05T05:29:19.829Z,70.86
2023-02-05T05:31:54.538Z,70.92
2023-02-05T05:34:26.332Z,70.89
2023-02-05T05:37:01.010Z,71.12
2023-02-05T05:40:11.157Z,71.19
2023-02-05T05:43:09.094Z,71.15
2023-02-05T05:45:49.273Z,71.25
2023-02-05T05:48:26.585Z,71.28
2023-02-05T05:51:01.095Z,71.38
2023-02-05T05:53:57.096Z,71.31
2023-02-05T05:56:56.683Z,71.50
2023-02-05T05:59:51.602Z,71.66
2023-02-05T06:02:39.508Z,71.75
2023-02-05T06:05:23.296Z,71.84
2023-02-05T06:08:07.345Z,71.89
2023-02-05T06:11:05.338Z,71.95
2023-02-05T06:13:58.695Z,71.95
2023-02-05T06:17:07.576Z,72.10
2023-02-05T06:19:49.399Z,72.20
2023-02-05T06:22:27.395Z,72.08
2023-02-05T06:25:11.439Z,72.11
2023-02-05T06:27:59.076Z,72.30
2023-02-05T06:30:45.420Z,72.28
2023-02-05T06:33:17.908Z,72.24
2023-02-05T06:35:54.914Z,72.27
2023-02-05T06:38:27.650Z,72.09
2023-02-05T06:41:29.920Z,72.09
2023-02-05T06:44:05.829Z,71.92
2023-02-05T06:47:14.311Z,72.00
2023-02-05T06:50:00.437Z,71.94
2023-02-05T06:52:49.959Z,72.10
2023-02-05T07:00:01.674Z,72.31
2023-02-05T07:07:19.610Z,72.37
2023-02-05T07:10:12.562Z,72.35
2023-02-05T07:13:05.739Z,72.17
2023-02-05T07:16:00.439Z,72.15
2023-02-05T07:19:03.079Z,72.09
2023-02-05T07:22:08.342Z,72.02
2023-02-05T07:25:12.045Z,71.97
2023-02-05T07:28:30.179Z,71.97
2023-02-05T07:35:39.657Z,72.11
2023-02-05T07:39:05.113Z,72.15
2023-02-05T07:42:02.756Z,72.03
2023-02-05T07:45:03.803Z,72.11
2023-02-05T07:48:06.066Z,71.93
2023-02-05T07:50:55.497Z,71.97
2023-02-05T07:53:40.015Z,71.95
2023-02-05T08:00:10.992Z,71.99
2023-02-05T08:03:35.472Z,71.96
2023-02-05T08:06:33.102Z,71.93
2023-02-05T08:13:52.429Z,71.67
2023-02-05T08:17:10.084Z,71.94
2023-02-05T08:20:23.468Z,71.82
2023-02-05T08:23:24.835Z,71.73
2023-02-05T08:26:36.119Z,71.44
2023-02-05T08:29:32.497Z,71.26
2023-02-05T08:32:13.495Z,71.49
2023-02-05T08:34:51.927Z,71.47
2023-02-05T08:37:39.745Z,71.21
2023-02-05T08:40:15.152Z,70.80
2023-02-05T08:43:08.455Z,70.64
2023-02-05T08:46:33.873Z,70.73
2023-02-05T08:50:00.564Z,70.86
2023-02-05T08:53:15.593Z,70.76
2023-02-05T08:56:06.897Z,70.50
2023-02-05T08:59:04.060Z,70.42
2023-02-05T09:01:52.572Z,70.05
2023-02-05T09:04:39.337Z,69.68
2023-02-05T09:07:54.224Z,69.40
2023-02-05T09:11:06.656Z,69.41
2023-02-05T09:13:43.045Z,69.53
2023-02-05T09:19:51.070Z,68.79
2023-02-05T09:22:30.577Z,68.86
2023-02-05T09:25:40.383Z,68.84
2023-02-05T09:28:48.218Z,68.52
2023-02-05T09:31:48.422Z,68.28
2023-02-05T09:34:30.037Z,68.46
2023-02-05T09:38:08.760Z,68.41
2023-02-05T09:40:59.834Z,67.65
2023-02-05T09:44:25.863Z,67.30
2023-02-05T09:47:55.963Z,67.51
2023-02-05T09:51:10.876Z,67.51
2023-02-05T09:54:43.253Z,67.24
2023-02-05T09:57:42.615Z,67.07
2023-02-05T10:01:23.021Z,66.71
2023-02-05T10:12:09.977Z,66.24
2023-02-05T10:15:47.315Z,65.91
2023-02-05T10:19:19.835Z,65.56
2023-02-05T10:23:27.066Z,65.50
2023-02-05T10:31:43.632Z,66.27
2023-02-05T10:35:50.499Z,65.60
2023-02-05T10:39:55.695Z,65.28
2023-02-05T10:47:09.801Z,64.52
2023-02-05T10:51:05.549Z,64.25
2023-02-05T10:54:17.718Z,64.77
2023-02-05T10:57:20.756Z,63.46
2023-02-05T11:01:18.667Z,62.43
2023-02-05T11:04:13.801Z,65.39
2023-02-05T11:07:13.294Z,61.36
2023-02-05T11:10:07.286Z,58.93
2023-02-05T11:13:28.728Z,56.14
2023-02-05T11:16:40.422Z,55.54
2023-02-05T11:20:21.856Z,55.36
2023-02-05T11:24:36.679Z,55.06
2023-02-05T11:28:39.029Z,56.40
2023-02-05T11:32:12.771Z,56.95
2023-02-05T11:35:40.341Z,56.99
2023-02-05T11:47:56.695Z,58.09
2023-02-05T11:54:48.744Z,58.36
2023-02-05T12:01:50.910Z,58.23
2023-02-05T12:05:16.429Z,58.13
2023-02-05T12:09:14.602Z,58.10
2023-02-05T12:17:26.480Z,58.07
2023-02-05T12:21:17.585Z,57.85
2023-02-05T12:25:18.519Z,58.03
2023-02-05T12:29:59.600Z,58.34
2023-02-05T12:33:35.749Z,58.47
2023-02-05T12:37:36.716Z,58.53
2023-02-05T13:13:19.980Z,58.89
2023-02-05T13:16:16.335Z,58.78
2023-02-05T13:19:30.900Z,58.93
2023-02-05T13:23:00.274Z,58.96
2023-02-05T13:26:25.277Z,58.99
2023-02-05T13:30:05.483Z,59.19
2023-02-05T13:33:21.664Z,59.08
2023-02-05T13:36:21.087Z,58.75
2023-02-05T13:39:34.261Z,58.65
2023-02-05T13:43:25.617Z,58.89
2023-02-05T13:46:54.779Z,58.85
2023-02-05T13:51:02.609Z,58.78
2023-02-05T13:54:31.534Z,58.93
2023-02-05T13:57:53.526Z,58.83
2023-02-05T14:01:04.755Z,58.94
2023-02-05T14:04:50.821Z,58.72
2023-02-05T14:08:20.141Z,58.70
2023-02-05T14:11:43.696Z,58.65
2023-02-05T14:15:28.864Z,58.56
2023-02-05T14:19:35.268Z,58.40
2023-02-05T14:22:21.666Z,58.22
2023-02-05T14:25:33.233Z,58.18
2023-02-05T14:29:30.184Z,58.24
2023-02-05T14:32:31.660Z,58.20
2023-02-05T14:36:20.438Z,58.12
2023-02-05T14:39:25.132Z,58.08
2023-02-05T14:42:48.544Z,58.18
2023-02-05T14:46:14.522Z,58.31
2023-02-05T14:53:24.572Z,58.16
2023-02-05T14:57:12.466Z,58.23
2023-02-05T15:00:50.578Z,58.37
2023-02-05T15:07:37.484Z,58.49
2023-02-05T15:11:12.357Z,58.53
2023-02-05T15:14:42.943Z,58.61
2023-02-05T15:18:07.391Z,58.52
2023-02-05T15:31:04.715Z,58.69
2023-02-05T15:34:19.584Z,58.68
2023-02-05T15:37:53.144Z,58.71
2023-02-05T15:40:45.083Z,58.83
2023-02-05T15:43:31.703Z,58.84
2023-02-05T15:46:25.195Z,58.81
2023-02-05T15:49:32.609Z,58.92
2023-02-05T15:52:43.636Z,59.19
2023-02-05T16:00:02.193Z,59.32
2023-02-05T16:02:59.005Z,59.40
2023-02-05T16:05:40.540Z,59.71
2023-02-05T16:08:21.283Z,59.65
2023-02-05T16:11:42.538Z,59.67
2023-02-05T16:14:47.886Z,59.73
2023-02-05T16:17:56.788Z,59.95
2023-02-05T16:21:18.678Z,60.18
2023-02-05T16:28:24.616Z,60.40
2023-02-05T16:31:44.405Z,60.70
2023-02-05T16:35:07.418Z,60.77
2023-02-05T16:39:32.481Z,60.93
2023-02-05T16:43:22.268Z,61.02
2023-02-05T16:46:56.782Z,61.19
2023-02-05T16:51:34.558Z,61.35
2023-02-05T16:55:00.228Z,61.69
2023-02-05T16:58:08.176Z,61.76
2023-02-05T17:35:23.795Z,60.29
2023-02-05T17:38:57.727Z,60.39
2023-02-05T17:42:46.616Z,60.92
2023-02-05T17:46:21.020Z,61.64
2023-02-05T17:52:31.320Z,62.60
2023-02-05T17:56:09.078Z,62.95
2023-02-05T18:04:26.134Z,63.59
2023-02-05T18:15:26.671Z,64.47
2023-02-05T18:19:08.001Z,64.67
2023-02-05T18:22:35.326Z,64.81
2023-02-05T18:25:59.593Z,64.85
2023-02-05T18:29:23.051Z,64.99
2023-02-05T18:32:36.981Z,64.96
2023-02-05T18:36:30.193Z,65.05
2023-02-05T18:39:59.386Z,65.23
2023-02-05T18:43:26.029Z,65.30
2023-02-05T18:47:44.173Z,65.55
2023-02-05T19:04:32.790Z,66.11
2023-02-05T19:07:46.915Z,66.29
2023-02-05T19:11:04.354Z,66.31
2023-02-05T19:13:48.764Z,66.44
2023-02-05T19:42:49.207Z,67.37
2023-02-05T19:59:01.899Z,67.66
2023-02-05T20:02:20.709Z,67.69
2023-02-05T20:05:08.504Z,67.76
2023-02-05T20:09:27.338Z,67.97
2023-02-05T20:13:18.273Z,68.08
2023-02-05T20:17:05.175Z,68.18
2023-02-05T22:43:31.591Z,64.80
2023-02-05T22:46:51.124Z,63.22
2023-02-05T22:50:16.395Z,64.06
2023-02-05T22:56:44.307Z,65.60
2023-02-05T23:00:01.938Z,65.98
2023-02-05T23:08:03.482Z,66.69
2023-02-05T23:11:34.485Z,67.08
2023-02-05T23:25:44.746Z,67.74
2023-02-05T23:31:57.895Z,68.23
2023-02-05T23:38:50.316Z,68.58
2023-02-05T23:45:54.534Z,68.78
2023-02-05T23:48:44.408Z,68.98
2023-02-05T23:52:01.234Z,68.87
2023-02-05T23:55:29.371Z,68.89
2023-02-05T23:58:14.498Z,68.92
